sensor_id;sensor_type;location;lat;lon;timestamp;P1;durP1;ratioP1;P2;durP2;ratioP2
3637;SDS011;1835;50.068;8.154;2023-01-09T00:01:27;15.73;;;5.07;;
3637;SDS011;1835;50.068;8.154;2023-01-09T00:03:58;4.23;;;3.87;;
3637;SDS011;1835;50.068;8.154;2023-01-09T00:06:26;8.87;;;5.10;;
3637;SDS011;1835;50.068;8.154;2023-01-09T00:08:55;4.87;;;4.17;;
3637;SDS011;1835;50.068;8.154;2023-01-09T00:11:24;8.30;;;5.00;;
3637;SDS011;1835;50.068;8.154;2023-01-09T00:13:52;9.00;;;5.90;;
3637;SDS011;1835;50.068;8.154;2023-01-09T00:16:20;7.43;;;5.00;;
3637;SDS011;1835;50.068;8.154;2023-01-09T00:18:49;6.73;;;5.13;;
3637;SDS011;1835;50.068;8.154;2023-01-09T00:21:18;10.10;;;5.20;;
3637;SDS011;1835;50.068;8.154;2023-01-09T00:23:46;6.20;;;4.97;;
3637;SDS011;1835;50.068;8.154;2023-01-09T00:26:15;6.53;;;5.30;;
3637;SDS011;1835;50.068;8.154;2023-01-09T00:28:47;6.17;;;5.20;;
3637;SDS011;1835;50.068;8.154;2023-01-09T00:31:17;7.50;;;6.20;;
3637;SDS011;1835;50.068;8.154;2023-01-09T00:33:47;12.53;;;6.40;;
3637;SDS011;1835;50.068;8.154;2023-01-09T00:36:21;8.67;;;6.10;;
3637;SDS011;1835;50.068;8.154;2023-01-09T00:38:49;9.07;;;6.10;;
3637;SDS011;1835;50.068;8.154;2023-01-09T00:41:18;8.03;;;5.60;;
3637;SDS011;1835;50.068;8.154;2023-01-09T00:43:53;6.87;;;5.27;;
3637;SDS011;1835;50.068;8.154;2023-01-09T00:46:25;7.57;;;5.20;;
3637;SDS011;1835;50.068;8.154;2023-01-09T00:48:57;10.90;;;6.03;;
3637;SDS011;1835;50.068;8.154;2023-01-09T00:51:26;10.60;;;7.43;;
3637;SDS011;1835;50.068;8.154;2023-01-09T00:53:54;8.37;;;6.77;;
3637;SDS011;1835;50.068;8.154;2023-01-09T00:56:23;8.50;;;5.93;;
3637;SDS011;1835;50.068;8.154;2023-01-09T00:58:52;12.17;;;6.10;;
3637;SDS011;1835;50.068;8.154;2023-01-09T01:01:21;9.10;;;6.50;;
3637;SDS011;1835;50.068;8.154;2023-01-09T01:03:50;10.00;;;6.00;;
3637;SDS011;1835;50.068;8.154;2023-01-09T01:06:19;7.70;;;5.50;;
3637;SDS011;1835;50.068;8.154;2023-01-09T01:09:05;10.03;;;4.90;;
3637;SDS011;1835;50.068;8.154;2023-01-09T01:11:33;5.83;;;4.77;;
3637;SDS011;1835;50.068;8.154;2023-01-09T01:14:02;10.80;;;5.60;;
3637;SDS011;1835;50.068;8.154;2023-01-09T01:16:31;11.27;;;5.33;;
3637;SDS011;1835;50.068;8.154;2023-01-09T01:18:59;3.80;;;3.20;;
3637;SDS011;1835;50.068;8.154;2023-01-09T01:21:27;4.17;;;3.80;;
3637;SDS011;1835;50.068;8.154;2023-01-09T01:23:55;7.53;;;3.73;;
3637;SDS011;1835;50.068;8.154;2023-01-09T01:26:23;5.60;;;3.63;;
3637;SDS011;1835;50.068;8.154;2023-01-09T01:28:51;4.80;;;4.13;;
3637;SDS011;1835;50.068;8.154;2023-01-09T01:31:20;4.13;;;3.77;;
3637;SDS011;1835;50.068;8.154;2023-01-09T01:33:48;5.80;;;3.90;;
3637;SDS011;1835;50.068;8.154;2023-01-09T01:36:16;6.10;;;3.30;;
3637;SDS011;1835;50.068;8.154;2023-01-09T01:38:44;2.87;;;2.60;;
3637;SDS011;1835;50.068;8.154;2023-01-09T01:41:13;1.80;;;1.70;;
3637;SDS011;1835;50.068;8.154;2023-01-09T01:43:55;1.30;;;1.30;;
3637;SDS011;1835;50.068;8.154;2023-01-09T01:46:26;1.50;;;1.50;;
3637;SDS011;1835;50.068;8.154;2023-01-09T01:48:58;2.13;;;1.90;;
3637;SDS011;1835;50.068;8.154;2023-01-09T01:51:31;1.43;;;1.30;;
3637;SDS011;1835;50.068;8.154;2023-01-09T01:54:04;0.90;;;0.90;;
3637;SDS011;1835;50.068;8.154;2023-01-09T01:56:36;1.67;;;0.97;;
3637;SDS011;1835;50.068;8.154;2023-01-09T01:59:09;1.10;;;1.00;;
3637;SDS011;1835;50.068;8.154;2023-01-09T02:01:44;1.00;;;0.90;;
3637;SDS011;1835;50.068;8.154;2023-01-09T02:04:16;2.33;;;1.10;;
3637;SDS011;1835;50.068;8.154;2023-01-09T02:06:44;0.63;;;0.63;;
3637;SDS011;1835;50.068;8.154;2023-01-09T02:09:16;2.60;;;1.10;;
3637;SDS011;1835;50.068;8.154;2023-01-09T02:11:48;1.00;;;1.00;;
3637;SDS011;1835;50.068;8.154;2023-01-09T02:14:18;8.60;;;0.80;;
3637;SDS011;1835;50.068;8.154;2023-01-09T02:16:51;0.70;;;0.70;;
3637;SDS011;1835;50.068;8.154;2023-01-09T02:19:36;1.53;;;0.93;;
3637;SDS011;1835;50.068;8.154;2023-01-09T02:22:43;0.50;;;0.50;;
3637;SDS011;1835;50.068;8.154;2023-01-09T02:25:33;0.70;;;0.70;;
3637;SDS011;1835;50.068;8.154;2023-01-09T02:28:38;0.70;;;0.60;;
3637;SDS011;1835;50.068;8.154;2023-01-09T02:31:34;4.33;;;0.60;;
3637;SDS011;1835;50.068;8.154;2023-01-09T02:34:11;0.50;;;0.50;;
3637;SDS011;1835;50.068;8.154;2023-01-09T02:36:46;1.40;;;0.60;;
3637;SDS011;1835;50.068;8.154;2023-01-09T02:39:23;0.40;;;0.40;;
3637;SDS011;1835;50.068;8.154;2023-01-09T02:41:59;0.50;;;0.50;;
3637;SDS011;1835;50.068;8.154;2023-01-09T02:44:34;2.23;;;0.63;;
3637;SDS011;1835;50.068;8.154;2023-01-09T02:47:04;0.60;;;0.60;;
3637;SDS011;1835;50.068;8.154;2023-01-09T02:49:35;0.50;;;0.50;;
3637;SDS011;1835;50.068;8.154;2023-01-09T02:52:12;0.70;;;0.60;;
3637;SDS011;1835;50.068;8.154;2023-01-09T02:54:53;0.43;;;0.43;;
3637;SDS011;1835;50.068;8.154;2023-01-09T02:57:33;0.40;;;0.40;;
3637;SDS011;1835;50.068;8.154;2023-01-09T03:00:18;0.40;;;0.40;;
3637;SDS011;1835;50.068;8.154;2023-01-09T03:02:57;0.60;;;0.60;;
3637;SDS011;1835;50.068;8.154;2023-01-09T03:05:35;0.50;;;0.50;;
3637;SDS011;1835;50.068;8.154;2023-01-09T03:08:07;0.57;;;0.57;;
3637;SDS011;1835;50.068;8.154;2023-01-09T03:10:40;0.50;;;0.50;;
3637;SDS011;1835;50.068;8.154;2023-01-09T03:13:15;0.80;;;0.57;;
3637;SDS011;1835;50.068;8.154;2023-01-09T03:15:46;0.50;;;0.50;;
3637;SDS011;1835;50.068;8.154;2023-01-09T03:18:19;0.53;;;0.53;;
3637;SDS011;1835;50.068;8.154;2023-01-09T03:20:51;0.50;;;0.50;;
3637;SDS011;1835;50.068;8.154;2023-01-09T03:23:20;0.77;;;0.77;;
3637;SDS011;1835;50.068;8.154;2023-01-09T03:25:48;0.60;;;0.60;;
3637;SDS011;1835;50.068;8.154;2023-01-09T03:28:25;0.73;;;0.60;;
3637;SDS011;1835;50.068;8.154;2023-01-09T03:30:55;0.53;;;0.53;;
3637;SDS011;1835;50.068;8.154;2023-01-09T03:33:24;0.50;;;0.50;;
3637;SDS011;1835;50.068;8.154;2023-01-09T03:35:54;0.50;;;0.50;;
3637;SDS011;1835;50.068;8.154;2023-01-09T03:38:21;0.60;;;0.60;;
3637;SDS011;1835;50.068;8.154;2023-01-09T03:40:49;1.33;;;0.60;;
3637;SDS011;1835;50.068;8.154;2023-01-09T03:43:17;3.03;;;0.70;;
3637;SDS011;1835;50.068;8.154;2023-01-09T03:45:45;0.60;;;0.60;;
3637;SDS011;1835;50.068;8.154;2023-01-09T03:48:13;0.50;;;0.50;;
3637;SDS011;1835;50.068;8.154;2023-01-09T03:50:43;0.60;;;0.60;;
3637;SDS011;1835;50.068;8.154;2023-01-09T03:53:12;0.50;;;0.50;;
3637;SDS011;1835;50.068;8.154;2023-01-09T03:55:42;0.80;;;0.80;;
3637;SDS011;1835;50.068;8.154;2023-01-09T03:58:12;0.80;;;0.80;;
3637;SDS011;1835;50.068;8.154;2023-01-09T04:00:41;0.60;;;0.60;;
3637;SDS011;1835;50.068;8.154;2023-01-09T04:03:11;0.60;;;0.60;;
3637;SDS011;1835;50.068;8.154;2023-01-09T04:05:39;0.50;;;0.50;;
3637;SDS011;1835;50.068;8.154;2023-01-09T04:08:08;0.60;;;0.60;;
3637;SDS011;1835;50.068;8.154;2023-01-09T04:10:37;0.70;;;0.70;;
3637;SDS011;1835;50.068;8.154;2023-01-09T04:13:05;0.77;;;0.50;;
3637;SDS011;1835;50.068;8.154;2023-01-09T04:15:33;5.63;;;0.80;;
3637;SDS011;1835;50.068;8.154;2023-01-09T04:18:01;0.70;;;0.70;;
3637;SDS011;1835;50.068;8.154;2023-01-09T04:20:29;0.60;;;0.60;;
3637;SDS011;1835;50.068;8.154;2023-01-09T04:22:57;0.60;;;0.60;;
3637;SDS011;1835;50.068;8.154;2023-01-09T04:25:27;0.50;;;0.50;;
3637;SDS011;1835;50.068;8.154;2023-01-09T04:27:55;0.60;;;0.60;;
3637;SDS011;1835;50.068;8.154;2023-01-09T04:30:23;0.87;;;0.60;;
3637;SDS011;1835;50.068;8.154;2023-01-09T04:32:51;0.60;;;0.60;;
3637;SDS011;1835;50.068;8.154;2023-01-09T04:35:19;0.60;;;0.60;;
3637;SDS011;1835;50.068;8.154;2023-01-09T04:37:48;4.00;;;0.70;;
3637;SDS011;1835;50.068;8.154;2023-01-09T04:40:16;0.60;;;0.60;;
3637;SDS011;1835;50.068;8.154;2023-01-09T04:42:46;0.60;;;0.60;;
3637;SDS011;1835;50.068;8.154;2023-01-09T04:45:14;0.67;;;0.67;;
3637;SDS011;1835;50.068;8.154;2023-01-09T04:47:42;0.70;;;0.70;;
3637;SDS011;1835;50.068;8.154;2023-01-09T04:50:11;0.50;;;0.50;;
3637;SDS011;1835;50.068;8.154;2023-01-09T04:52:39;0.80;;;0.80;;
3637;SDS011;1835;50.068;8.154;2023-01-09T04:55:07;0.60;;;0.60;;
3637;SDS011;1835;50.068;8.154;2023-01-09T04:57:36;0.80;;;0.80;;
3637;SDS011;1835;50.068;8.154;2023-01-09T05:00:06;0.70;;;0.70;;
3637;SDS011;1835;50.068;8.154;2023-01-09T05:02:37;0.60;;;0.60;;
3637;SDS011;1835;50.068;8.154;2023-01-09T05:05:06;2.10;;;0.70;;
3637;SDS011;1835;50.068;8.154;2023-01-09T05:07:37;0.60;;;0.60;;
3637;SDS011;1835;50.068;8.154;2023-01-09T05:10:05;2.27;;;0.80;;
3637;SDS011;1835;50.068;8.154;2023-01-09T05:12:35;2.67;;;0.70;;
3637;SDS011;1835;50.068;8.154;2023-01-09T05:15:06;0.60;;;0.60;;
3637;SDS011;1835;50.068;8.154;2023-01-09T05:17:35;0.73;;;0.60;;
3637;SDS011;1835;50.068;8.154;2023-01-09T05:20:04;0.70;;;0.70;;
3637;SDS011;1835;50.068;8.154;2023-01-09T05:22:33;3.70;;;1.23;;
3637;SDS011;1835;50.068;8.154;2023-01-09T05:25:01;8.13;;;1.10;;
3637;SDS011;1835;50.068;8.154;2023-01-09T05:27:29;3.10;;;0.63;;
3637;SDS011;1835;50.068;8.154;2023-01-09T05:29:57;2.73;;;0.70;;
3637;SDS011;1835;50.068;8.154;2023-01-09T05:32:26;0.80;;;0.80;;
3637;SDS011;1835;50.068;8.154;2023-01-09T05:34:54;3.43;;;0.97;;
3637;SDS011;1835;50.068;8.154;2023-01-09T05:37:22;0.93;;;0.83;;
3637;SDS011;1835;50.068;8.154;2023-01-09T05:39:50;6.00;;;0.80;;
3637;SDS011;1835;50.068;8.154;2023-01-09T05:42:18;1.07;;;0.80;;
3637;SDS011;1835;50.068;8.154;2023-01-09T05:44:46;1.17;;;0.90;;
3637;SDS011;1835;50.068;8.154;2023-01-09T05:47:14;4.10;;;0.90;;
3637;SDS011;1835;50.068;8.154;2023-01-09T05:49:43;1.10;;;0.73;;
3637;SDS011;1835;50.068;8.154;2023-01-09T05:52:11;0.60;;;0.60;;
3637;SDS011;1835;50.068;8.154;2023-01-09T05:54:40;2.37;;;0.70;;
3637;SDS011;1835;50.068;8.154;2023-01-09T05:57:08;3.90;;;0.90;;
3637;SDS011;1835;50.068;8.154;2023-01-09T05:59:36;4.93;;;1.03;;
3637;SDS011;1835;50.068;8.154;2023-01-09T06:02:04;0.63;;;0.63;;
3637;SDS011;1835;50.068;8.154;2023-01-09T06:04:32;1.37;;;0.90;;
3637;SDS011;1835;50.068;8.154;2023-01-09T06:07:01;1.00;;;0.93;;
3637;SDS011;1835;50.068;8.154;2023-01-09T06:09:29;0.80;;;0.80;;
3637;SDS011;1835;50.068;8.154;2023-01-09T06:11:58;0.90;;;0.90;;
3637;SDS011;1835;50.068;8.154;2023-01-09T06:14:26;1.13;;;1.13;;
3637;SDS011;1835;50.068;8.154;2023-01-09T06:16:54;1.07;;;0.80;;
3637;SDS011;1835;50.068;8.154;2023-01-09T06:19:23;0.80;;;0.80;;
3637;SDS011;1835;50.068;8.154;2023-01-09T06:21:51;3.70;;;0.90;;
3637;SDS011;1835;50.068;8.154;2023-01-09T06:24:20;1.83;;;0.77;;
3637;SDS011;1835;50.068;8.154;2023-01-09T06:26:48;3.53;;;0.87;;
3637;SDS011;1835;50.068;8.154;2023-01-09T06:29:16;2.70;;;0.90;;
3637;SDS011;1835;50.068;8.154;2023-01-09T06:31:44;0.70;;;0.70;;
3637;SDS011;1835;50.068;8.154;2023-01-09T06:34:12;0.70;;;0.70;;
3637;SDS011;1835;50.068;8.154;2023-01-09T06:36:40;2.50;;;0.80;;
3637;SDS011;1835;50.068;8.154;2023-01-09T06:39:08;4.17;;;1.10;;
3637;SDS011;1835;50.068;8.154;2023-01-09T06:41:38;2.70;;;0.70;;
3637;SDS011;1835;50.068;8.154;2023-01-09T06:44:06;4.50;;;1.33;;
3637;SDS011;1835;50.068;8.154;2023-01-09T06:46:34;1.53;;;0.80;;
3637;SDS011;1835;50.068;8.154;2023-01-09T06:49:02;1.33;;;0.80;;
3637;SDS011;1835;50.068;8.154;2023-01-09T06:51:30;2.03;;;1.00;;
3637;SDS011;1835;50.068;8.154;2023-01-09T06:53:58;8.73;;;1.10;;
3637;SDS011;1835;50.068;8.154;2023-01-09T06:56:26;3.47;;;0.83;;
3637;SDS011;1835;50.068;8.154;2023-01-09T06:58:55;1.07;;;1.07;;
3637;SDS011;1835;50.068;8.154;2023-01-09T07:01:23;10.67;;;1.33;;
3637;SDS011;1835;50.068;8.154;2023-01-09T07:03:51;1.33;;;1.23;;
3637;SDS011;1835;50.068;8.154;2023-01-09T07:06:19;1.63;;;1.53;;
3637;SDS011;1835;50.068;8.154;2023-01-09T07:08:47;3.53;;;2.10;;
3637;SDS011;1835;50.068;8.154;2023-01-09T07:11:15;1.77;;;1.10;;
3637;SDS011;1835;50.068;8.154;2023-01-09T07:13:43;3.70;;;1.17;;
3637;SDS011;1835;50.068;8.154;2023-01-09T07:16:13;1.80;;;1.23;;
3637;SDS011;1835;50.068;8.154;2023-01-09T07:18:41;3.80;;;1.33;;
3637;SDS011;1835;50.068;8.154;2023-01-09T07:21:09;6.33;;;1.10;;
3637;SDS011;1835;50.068;8.154;2023-01-09T07:23:37;1.97;;;1.00;;
3637;SDS011;1835;50.068;8.154;2023-01-09T07:26:05;3.23;;;1.17;;
3637;SDS011;1835;50.068;8.154;2023-01-09T07:28:33;6.57;;;1.27;;
3637;SDS011;1835;50.068;8.154;2023-01-09T07:31:01;1.70;;;1.20;;
3637;SDS011;1835;50.068;8.154;2023-01-09T07:33:31;3.13;;;1.17;;
3637;SDS011;1835;50.068;8.154;2023-01-09T07:35:59;2.03;;;1.37;;
3637;SDS011;1835;50.068;8.154;2023-01-09T07:38:27;2.47;;;1.73;;
3637;SDS011;1835;50.068;8.154;2023-01-09T07:40:55;9.20;;;1.20;;
3637;SDS011;1835;50.068;8.154;2023-01-09T07:43:23;5.30;;;1.33;;
3637;SDS011;1835;50.068;8.154;2023-01-09T07:45:52;1.40;;;1.30;;
3637;SDS011;1835;50.068;8.154;2023-01-09T07:48:20;2.30;;;2.00;;
3637;SDS011;1835;50.068;8.154;2023-01-09T07:50:50;6.77;;;2.53;;
3637;SDS011;1835;50.068;8.154;2023-01-09T07:53:18;3.00;;;1.60;;
3637;SDS011;1835;50.068;8.154;2023-01-09T07:55:46;1.60;;;1.50;;
3637;SDS011;1835;50.068;8.154;2023-01-09T07:58:14;2.83;;;1.20;;
3637;SDS011;1835;50.068;8.154;2023-01-09T08:00:42;4.00;;;1.20;;
3637;SDS011;1835;50.068;8.154;2023-01-09T08:03:10;3.30;;;1.60;;
3637;SDS011;1835;50.068;8.154;2023-01-09T08:05:38;3.90;;;1.20;;
3637;SDS011;1835;50.068;8.154;2023-01-09T08:08:08;11.50;;;1.47;;
3637;SDS011;1835;50.068;8.154;2023-01-09T08:10:36;7.17;;;1.50;;
3637;SDS011;1835;50.068;8.154;2023-01-09T08:13:04;8.23;;;1.50;;
3637;SDS011;1835;50.068;8.154;2023-01-09T08:15:32;3.17;;;1.50;;
3637;SDS011;1835;50.068;8.154;2023-01-09T08:18:00;7.23;;;2.20;;
3637;SDS011;1835;50.068;8.154;2023-01-09T08:20:28;1.80;;;1.23;;
3637;SDS011;1835;50.068;8.154;2023-01-09T08:22:57;0.97;;;0.97;;
3637;SDS011;1835;50.068;8.154;2023-01-09T08:25:26;2.20;;;1.40;;
3637;SDS011;1835;50.068;8.154;2023-01-09T08:27:54;1.20;;;1.10;;
3637;SDS011;1835;50.068;8.154;2023-01-09T08:30:22;1.00;;;0.90;;
3637;SDS011;1835;50.068;8.154;2023-01-09T08:32:51;5.03;;;1.07;;
3637;SDS011;1835;50.068;8.154;2023-01-09T08:35:20;4.03;;;1.70;;
3637;SDS011;1835;50.068;8.154;2023-01-09T08:37:48;2.60;;;1.23;;
3637;SDS011;1835;50.068;8.154;2023-01-09T08:40:17;3.60;;;1.73;;
3637;SDS011;1835;50.068;8.154;2023-01-09T08:42:46;1.10;;;1.10;;
3637;SDS011;1835;50.068;8.154;2023-01-09T08:45:32;3.77;;;1.27;;
3637;SDS011;1835;50.068;8.154;2023-01-09T08:48:18;5.10;;;1.40;;
3637;SDS011;1835;50.068;8.154;2023-01-09T08:50:46;8.50;;;1.77;;
3637;SDS011;1835;50.068;8.154;2023-01-09T08:53:14;6.03;;;1.50;;
3637;SDS011;1835;50.068;8.154;2023-01-09T08:55:42;2.73;;;1.00;;
3637;SDS011;1835;50.068;8.154;2023-01-09T08:58:12;1.83;;;1.10;;
3637;SDS011;1835;50.068;8.154;2023-01-09T09:00:40;3.23;;;1.30;;
3637;SDS011;1835;50.068;8.154;2023-01-09T09:03:08;6.70;;;1.20;;
3637;SDS011;1835;50.068;8.154;2023-01-09T09:05:37;2.90;;;1.50;;
3637;SDS011;1835;50.068;8.154;2023-01-09T09:08:05;2.20;;;1.00;;
3637;SDS011;1835;50.068;8.154;2023-01-09T09:10:33;4.20;;;1.60;;
3637;SDS011;1835;50.068;8.154;2023-01-09T09:13:01;6.20;;;2.00;;
3637;SDS011;1835;50.068;8.154;2023-01-09T09:15:31;7.43;;;1.10;;
3637;SDS011;1835;50.068;8.154;2023-01-09T09:18:00;1.23;;;0.87;;
3637;SDS011;1835;50.068;8.154;2023-01-09T09:20:31;3.80;;;1.13;;
3637;SDS011;1835;50.068;8.154;2023-01-09T09:23:01;1.07;;;0.97;;
3637;SDS011;1835;50.068;8.154;2023-01-09T09:25:30;4.13;;;0.80;;
3637;SDS011;1835;50.068;8.154;2023-01-09T09:27:58;1.97;;;1.07;;
3637;SDS011;1835;50.068;8.154;2023-01-09T09:30:27;2.30;;;0.90;;
3637;SDS011;1835;50.068;8.154;2023-01-09T09:32:56;1.67;;;1.60;;
3637;SDS011;1835;50.068;8.154;2023-01-09T09:35:24;1.57;;;0.77;;
3637;SDS011;1835;50.068;8.154;2023-01-09T09:37:54;0.90;;;0.80;;
3637;SDS011;1835;50.068;8.154;2023-01-09T09:40:31;2.83;;;1.13;;
3637;SDS011;1835;50.068;8.154;2023-01-09T09:43:16;5.00;;;1.20;;
3637;SDS011;1835;50.068;8.154;2023-01-09T09:46:40;1.07;;;1.07;;
3637;SDS011;1835;50.068;8.154;2023-01-09T09:49:15;5.33;;;1.53;;
3637;SDS011;1835;50.068;8.154;2023-01-09T09:51:51;1.57;;;0.90;;
3637;SDS011;1835;50.068;8.154;2023-01-09T09:54:31;4.93;;;1.30;;
3637;SDS011;1835;50.068;8.154;2023-01-09T09:57:03;1.10;;;1.00;;
3637;SDS011;1835;50.068;8.154;2023-01-09T09:59:37;1.93;;;1.67;;
3637;SDS011;1835;50.068;8.154;2023-01-09T10:02:12;0.73;;;0.73;;
3637;SDS011;1835;50.068;8.154;2023-01-09T10:04:55;3.47;;;0.90;;
3637;SDS011;1835;50.068;8.154;2023-01-09T10:07:31;4.27;;;0.73;;
3637;SDS011;1835;50.068;8.154;2023-01-09T10:10:09;1.60;;;0.87;;
3637;SDS011;1835;50.068;8.154;2023-01-09T10:12:44;0.70;;;0.70;;
3637;SDS011;1835;50.068;8.154;2023-01-09T10:15:20;2.73;;;0.90;;
3637;SDS011;1835;50.068;8.154;2023-01-09T10:18:07;1.17;;;0.80;;
3637;SDS011;1835;50.068;8.154;2023-01-09T10:20:51;3.17;;;1.00;;
3637;SDS011;1835;50.068;8.154;2023-01-09T10:23:27;6.33;;;1.30;;
3637;SDS011;1835;50.068;8.154;2023-01-09T10:26:26;0.90;;;0.60;;
3637;SDS011;1835;50.068;8.154;2023-01-09T10:29:06;1.10;;;0.90;;
3637;SDS011;1835;50.068;8.154;2023-01-09T10:32:10;2.90;;;0.80;;
3637;SDS011;1835;50.068;8.154;2023-01-09T10:35:00;2.83;;;1.27;;
3637;SDS011;1835;50.068;8.154;2023-01-09T10:38:21;2.47;;;1.40;;
3637;SDS011;1835;50.068;8.154;2023-01-09T10:40:53;1.60;;;1.00;;
3637;SDS011;1835;50.068;8.154;2023-01-09T10:43:28;0.80;;;0.80;;
3637;SDS011;1835;50.068;8.154;2023-01-09T10:46:02;2.10;;;1.17;;
3637;SDS011;1835;50.068;8.154;2023-01-09T10:48:36;1.80;;;1.30;;
3637;SDS011;1835;50.068;8.154;2023-01-09T10:51:13;2.10;;;1.00;;
3637;SDS011;1835;50.068;8.154;2023-01-09T10:53:48;3.33;;;1.17;;
3637;SDS011;1835;50.068;8.154;2023-01-09T10:56:22;1.97;;;1.47;;
3637;SDS011;1835;50.068;8.154;2023-01-09T10:58:53;4.70;;;1.10;;
3637;SDS011;1835;50.068;8.154;2023-01-09T11:01:23;1.30;;;0.83;;
3637;SDS011;1835;50.068;8.154;2023-01-09T11:03:54;1.90;;;1.40;;
3637;SDS011;1835;50.068;8.154;2023-01-09T11:06:25;3.10;;;1.20;;
3637;SDS011;1835;50.068;8.154;2023-01-09T11:09:00;9.00;;;1.70;;
3637;SDS011;1835;50.068;8.154;2023-01-09T11:11:30;1.80;;;1.10;;
3637;SDS011;1835;50.068;8.154;2023-01-09T11:14:04;1.40;;;1.30;;
3637;SDS011;1835;50.068;8.154;2023-01-09T11:16:49;1.27;;;1.20;;
3637;SDS011;1835;50.068;8.154;2023-01-09T11:19:19;3.17;;;1.00;;
3637;SDS011;1835;50.068;8.154;2023-01-09T11:21:47;10.40;;;1.57;;
3637;SDS011;1835;50.068;8.154;2023-01-09T11:24:21;6.53;;;0.90;;
3637;SDS011;1835;50.068;8.154;2023-01-09T11:30:09;2.93;;;1.00;;
3637;SDS011;1835;50.068;8.154;2023-01-09T11:32:51;1.20;;;1.10;;
3637;SDS011;1835;50.068;8.154;2023-01-09T11:35:21;2.10;;;1.40;;
3637;SDS011;1835;50.068;8.154;2023-01-09T11:38:01;1.20;;;1.10;;
3637;SDS011;1835;50.068;8.154;2023-01-09T11:40:36;5.30;;;1.70;;
3637;SDS011;1835;50.068;8.154;2023-01-09T11:43:14;2.70;;;1.00;;
3637;SDS011;1835;50.068;8.154;2023-01-09T11:45:51;4.33;;;1.03;;
3637;SDS011;1835;50.068;8.154;2023-01-09T11:48:28;1.80;;;1.03;;
3637;SDS011;1835;50.068;8.154;2023-01-09T11:51:16;1.43;;;1.20;;
3637;SDS011;1835;50.068;8.154;2023-01-09T11:56:42;2.67;;;1.20;;
3637;SDS011;1835;50.068;8.154;2023-01-09T11:59:11;1.83;;;0.97;;
3637;SDS011;1835;50.068;8.154;2023-01-09T12:01:48;3.40;;;1.97;;
3637;SDS011;1835;50.068;8.154;2023-01-09T12:04:33;6.10;;;1.37;;
3637;SDS011;1835;50.068;8.154;2023-01-09T12:07:13;2.90;;;1.40;;
3637;SDS011;1835;50.068;8.154;2023-01-09T12:09:58;1.50;;;1.10;;
3637;SDS011;1835;50.068;8.154;2023-01-09T12:12:39;2.00;;;1.00;;
3637;SDS011;1835;50.068;8.154;2023-01-09T12:15:24;1.70;;;1.03;;
3637;SDS011;1835;50.068;8.154;2023-01-09T12:18:04;0.97;;;0.70;;
3637;SDS011;1835;50.068;8.154;2023-01-09T12:20:51;2.77;;;1.70;;
3637;SDS011;1835;50.068;8.154;2023-01-09T12:23:35;1.83;;;1.20;;
3637;SDS011;1835;50.068;8.154;2023-01-09T12:26:30;4.20;;;1.20;;
3637;SDS011;1835;50.068;8.154;2023-01-09T12:32:18;3.90;;;1.07;;
3637;SDS011;1835;50.068;8.154;2023-01-09T12:34:58;1.00;;;0.90;;
3637;SDS011;1835;50.068;8.154;2023-01-09T12:37:38;4.53;;;1.03;;
3637;SDS011;1835;50.068;8.154;2023-01-09T12:41:05;7.60;;;1.97;;
3637;SDS011;1835;50.068;8.154;2023-01-09T12:44:21;2.23;;;1.13;;
3637;SDS011;1835;50.068;8.154;2023-01-09T12:53:32;3.80;;;1.57;;
3637;SDS011;1835;50.068;8.154;2023-01-09T12:56:05;2.40;;;1.70;;
3637;SDS011;1835;50.068;8.154;2023-01-09T12:58:39;4.53;;;1.40;;
3637;SDS011;1835;50.068;8.154;2023-01-09T13:01:13;1.90;;;1.80;;
3637;SDS011;1835;50.068;8.154;2023-01-09T13:03:47;6.20;;;3.73;;
3637;SDS011;1835;50.068;8.154;2023-01-09T13:06:25;5.23;;;4.03;;
3637;SDS011;1835;50.068;8.154;2023-01-09T13:09:04;1.57;;;1.30;;
3637;SDS011;1835;50.068;8.154;2023-01-09T13:11:42;3.23;;;2.10;;
3637;SDS011;1835;50.068;8.154;2023-01-09T13:14:16;1.00;;;0.90;;
3637;SDS011;1835;50.068;8.154;2023-01-09T13:16:51;4.83;;;1.90;;
3637;SDS011;1835;50.068;8.154;2023-01-09T13:19:24;4.10;;;1.37;;
3637;SDS011;1835;50.068;8.154;2023-01-09T13:21:56;5.37;;;2.47;;
3637;SDS011;1835;50.068;8.154;2023-01-09T13:24:26;1.33;;;1.13;;
3637;SDS011;1835;50.068;8.154;2023-01-09T13:27:01;8.00;;;2.97;;
3637;SDS011;1835;50.068;8.154;2023-01-09T13:29:34;2.03;;;1.00;;
3637;SDS011;1835;50.068;8.154;2023-01-09T13:32:16;2.27;;;2.17;;
3637;SDS011;1835;50.068;8.154;2023-01-09T13:35:00;0.80;;;0.80;;
3637;SDS011;1835;50.068;8.154;2023-01-09T13:37:29;1.67;;;1.30;;
3637;SDS011;1835;50.068;8.154;2023-01-09T13:40:00;0.80;;;0.80;;
3637;SDS011;1835;50.068;8.154;2023-01-09T13:42:43;1.00;;;1.00;;
3637;SDS011;1835;50.068;8.154;2023-01-09T13:45:18;1.33;;;1.00;;
3637;SDS011;1835;50.068;8.154;2023-01-09T13:57:29;0.97;;;0.83;;
3637;SDS011;1835;50.068;8.154;2023-01-09T14:03:21;1.13;;;1.13;;
3637;SDS011;1835;50.068;8.154;2023-01-09T14:06:04;2.63;;;1.30;;
3637;SDS011;1835;50.068;8.154;2023-01-09T14:08:42;2.97;;;0.90;;
3637;SDS011;1835;50.068;8.154;2023-01-09T14:11:19;2.30;;;0.97;;
3637;SDS011;1835;50.068;8.154;2023-01-09T14:14:00;4.17;;;1.33;;
3637;SDS011;1835;50.068;8.154;2023-01-09T14:16:34;1.03;;;0.93;;
3637;SDS011;1835;50.068;8.154;2023-01-09T14:19:04;1.20;;;0.97;;
3637;SDS011;1835;50.068;8.154;2023-01-09T14:21:49;4.23;;;2.07;;
3637;SDS011;1835;50.068;8.154;2023-01-09T14:24:22;2.63;;;1.47;;
3637;SDS011;1835;50.068;8.154;2023-01-09T14:26:55;2.20;;;1.50;;
3637;SDS011;1835;50.068;8.154;2023-01-09T14:35:14;22.47;;;6.53;;
3637;SDS011;1835;50.068;8.154;2023-01-09T14:37:52;18.00;;;6.80;;
3637;SDS011;1835;50.068;8.154;2023-01-09T14:40:46;5.87;;;2.60;;
3637;SDS011;1835;50.068;8.154;2023-01-09T14:43:22;9.20;;;2.43;;
3637;SDS011;1835;50.068;8.154;2023-01-09T14:46:02;8.53;;;3.50;;
3637;SDS011;1835;50.068;8.154;2023-01-09T14:48:39;1.90;;;1.37;;
3637;SDS011;1835;50.068;8.154;2023-01-09T14:51:22;6.20;;;3.50;;
3637;SDS011;1835;50.068;8.154;2023-01-09T14:53:54;1.87;;;1.60;;
3637;SDS011;1835;50.068;8.154;2023-01-09T14:56:26;3.80;;;2.30;;
3637;SDS011;1835;50.068;8.154;2023-01-09T14:59:05;5.80;;;1.70;;
3637;SDS011;1835;50.068;8.154;2023-01-09T15:01:39;4.60;;;1.17;;
3637;SDS011;1835;50.068;8.154;2023-01-09T15:04:18;1.47;;;1.27;;
3637;SDS011;1835;50.068;8.154;2023-01-09T15:06:57;5.80;;;2.87;;
3637;SDS011;1835;50.068;8.154;2023-01-09T15:09:27;7.20;;;1.20;;
3637;SDS011;1835;50.068;8.154;2023-01-09T15:12:01;3.30;;;1.33;;
3637;SDS011;1835;50.068;8.154;2023-01-09T15:14:33;1.17;;;1.07;;
3637;SDS011;1835;50.068;8.154;2023-01-09T15:17:05;10.87;;;4.57;;
3637;SDS011;1835;50.068;8.154;2023-01-09T15:19:43;4.87;;;1.10;;
3637;SDS011;1835;50.068;8.154;2023-01-09T15:22:19;3.00;;;2.10;;
3637;SDS011;1835;50.068;8.154;2023-01-09T15:24:51;10.37;;;1.30;;
3637;SDS011;1835;50.068;8.154;2023-01-09T15:27:19;6.00;;;1.40;;
3637;SDS011;1835;50.068;8.154;2023-01-09T15:29:48;0.77;;;0.77;;
3637;SDS011;1835;50.068;8.154;2023-01-09T15:32:20;2.40;;;1.47;;
3637;SDS011;1835;50.068;8.154;2023-01-09T15:34:52;1.07;;;1.07;;
3637;SDS011;1835;50.068;8.154;2023-01-09T15:37:31;5.50;;;2.10;;
3637;SDS011;1835;50.068;8.154;2023-01-09T15:40:06;1.10;;;1.10;;
3637;SDS011;1835;50.068;8.154;2023-01-09T15:42:47;2.37;;;0.80;;
3637;SDS011;1835;50.068;8.154;2023-01-09T15:45:25;7.50;;;0.93;;
3637;SDS011;1835;50.068;8.154;2023-01-09T15:48:13;1.00;;;1.00;;
3637;SDS011;1835;50.068;8.154;2023-01-09T15:50:48;1.63;;;1.00;;
3637;SDS011;1835;50.068;8.154;2023-01-09T15:53:19;1.30;;;1.20;;
3637;SDS011;1835;50.068;8.154;2023-01-09T15:56:02;2.90;;;1.90;;
3637;SDS011;1835;50.068;8.154;2023-01-09T15:58:34;3.10;;;1.63;;
3637;SDS011;1835;50.068;8.154;2023-01-09T16:01:04;6.60;;;2.40;;
3637;SDS011;1835;50.068;8.154;2023-01-09T16:03:39;2.57;;;2.17;;
3637;SDS011;1835;50.068;8.154;2023-01-09T16:06:08;3.33;;;1.00;;
3637;SDS011;1835;50.068;8.154;2023-01-09T16:08:41;2.37;;;1.53;;
3637;SDS011;1835;50.068;8.154;2023-01-09T16:11:21;3.00;;;1.60;;
3637;SDS011;1835;50.068;8.154;2023-01-09T16:13:52;2.43;;;1.17;;
3637;SDS011;1835;50.068;8.154;2023-01-09T16:16:22;1.33;;;1.17;;
3637;SDS011;1835;50.068;8.154;2023-01-09T16:18:54;1.70;;;1.00;;
3637;SDS011;1835;50.068;8.154;2023-01-09T16:21:31;4.40;;;1.40;;
3637;SDS011;1835;50.068;8.154;2023-01-09T16:24:02;3.67;;;1.10;;
3637;SDS011;1835;50.068;8.154;2023-01-09T16:26:52;1.50;;;1.40;;